Sac City, IA

10:39 PM CST on December 26, 2014 (GMT -0600)
Storm Lake Municipal | Change Station
CLOSE
Current Station
Airport
Location: Storm Lake,
Elevation: 1490 ft
Nearby Weather Stations
Active Advisory: Winter Weather Advisory

Elev 1490 ft 42.60 °N, 95.24 °W | Updated 24 minutes ago

Overcast
Overcast
28 °F
Feels Like 18 °F
N
13
Wind Variable Wind from NNE
Gusts 22 mph

Today
High -- | Low -- °F
--% Chance of Precip.
Yesterday
High -- | Low -- °F
Precip. -- in
7:48 AM 4:53 PM
Waxing Crescent, 32% visible
Pressure 30.02 in
Visibility 2.0 miles
Clouds Mostly Cloudy 600 ft
Overcast 1100 ft
Windchill 18 °F
Dew Point 27 °F
Humidity 93%
Rainfall 0.00 in
Snow Depth Not available.
UV 0 out of 12
Pollen .10 out of 12
Air Quality Not available.
Flu Activity Not available.
METAR KSLB 270415Z AUTO 02011G19KT 2SM +UP BKN006 OVC011 M02/M03 A3002 RMK AO2

More Conditions Fewer Conditions

Pressure 30.02 in
Visibility 2.0 miles
Clouds Mostly Cloudy 600 ft
Overcast 1100 ft
Windchill 18 °F
Dew Point 27 °F
Humidity 93%
Rainfall 0.00 in
Snow Depth Not available.
UV 0 out of 12
Pollen .10 out of 12
Air Quality Not available.
Flu Activity Not available.
METAR KSLB 270415Z AUTO 02011G19KT 2SM +UP BKN006 OVC011 M02/M03 A3002 RMK AO2

More Conditions Fewer Conditions

10-Day Weather Forecast

Almanac

Astronomy

Dec. 26, 2014 Rise Set
Actual Time
Civil Twilight
Nautical Twilight
Astronomical Twilight
Moon
Length of Visible Light
Length of Day
Tomorrow will be .
, % of the Moon is Illuminated

Today's Extremes

State Highs State Lows

Community

WunderPhotos

Upload Photos

1,780,847 photos uploaded!

WunderBlogs® & News

Nearby

Air Quality

  Air Quality AQ Index Pollutant
Not available.

Snow Depth

Station Depth Elevation

Earthquake Activity

City Distance Mag. Time & Date
Minimum magnitude displayed is 2.5.

Coastal Water Temperatures

Place Temperature

Nearby Weather Stations